Daio — JG5587 — position and weather

sailwx.info

Track history (hours):
 
Tides and Currents Weather Stations Pressure Air Temp Water Temp Dewpoint Dewpoint Depression Visibility Wind Speed Wind Dir Waves Ship Positions

Daio

Last reported at 2016-Apr-30 18:33 UTC. Time now 2016-Apr-30 18:51 UTC.
Position N 35°36' E 140°07'.

Length 36 m; draft 3.4 m.

Type: Tug. MMSI: 431003092.

Date/timePositionNaut miles runAvg speedWind from/ knotsBaromVisibWave heightAir tempDewpointWater temp
2016-Apr-30 18:33N 35°36' E 140°07'0 0.0
2016-Apr-30 17:33N 35°36' E 140°07'0 0.0
2016-Apr-30 16:33N 35°36' E 140°07'0 0.0
2016-Apr-30 15:33N 35°36' E 140°07'0 0.0
2016-Apr-30 14:34N 35°36' E 140°07'0 0.0
2016-Apr-30 13:33N 35°36' E 140°07'0 0.0
2016-Apr-30 12:33N 35°36' E 140°07'0 0.0
2016-Apr-30 11:34N 35°36' E 140°07'0 0.0
2016-Apr-30 10:33N 35°36' E 140°07'0 0.0
2016-Apr-30 09:33N 35°36' E 140°07'1 1.4
2016-Apr-30 08:33N 35°36' E 140°05'1 1.3
2016-Apr-30 07:33N 35°36' E 140°07'0 0.0
2016-Apr-30 06:34N 35°36' E 140°07'1 0.9
2016-Apr-30 05:33N 35°36' E 140°06'1 1.2
2016-Apr-30 04:33N 35°35' E 140°04'0 0.0
2016-Apr-30 03:33N 35°35' E 140°04'0 0.0
2016-Apr-30 02:33N 35°35' E 140°04'3 2.5
2016-Apr-30 01:33N 35°33' E 140°03'2 1.8
2016-Apr-30 00:33N 35°31' E 140°02'1 1.1
2016-Apr-29 23:33N 35°32' E 140°01'6 5.7
2016-Apr-29 22:33N 35°36' E 140°06'1 0.7
2016-Apr-29 21:33N 35°36' E 140°06'0 0.0
2016-Apr-29 20:34N 35°36' E 140°06'0 0.0
2016-Apr-29 19:33N 35°36' E 140°06'0 0.0
2016-Apr-29 18:33N 35°36' E 140°06'0 0.0
2016-Apr-29 17:33N 35°36' E 140°06'0 0.0
2016-Apr-29 16:33N 35°36' E 140°06'0 0.0
2016-Apr-29 15:33N 35°36' E 140°06'0 0.0
2016-Apr-29 14:33N 35°36' E 140°06'0 0.0
2016-Apr-29 13:33N 35°36' E 140°06'0 0.0
2016-Apr-29 12:33N 35°36' E 140°06'0 0.0
2016-Apr-29 11:33N 35°36' E 140°06'0 0.0
2016-Apr-29 10:33N 35°36' E 140°06'0 0.0
2016-Apr-29 09:33N 35°36' E 140°06'0 0.0
2016-Apr-29 08:33N 35°36' E 140°06'0 0.0
2016-Apr-29 07:33N 35°36' E 140°06'0 0.0
2016-Apr-29 06:33N 35°36' E 140°06'0 0.0
2016-Apr-29 05:33N 35°36' E 140°06'0 0.0
2016-Apr-29 04:33N 35°36' E 140°06'0 0.0
2016-Apr-29 03:33N 35°36' E 140°06'0 0.0
2016-Apr-29 02:33N 35°36' E 140°06'0 0.0
2016-Apr-29 01:33N 35°36' E 140°06'0 0.0
2016-Apr-29 00:33N 35°36' E 140°06'0 0.0
2016-Apr-28 23:33N 35°36' E 140°06'0 0.0
2016-Apr-28 22:33N 35°36' E 140°06'2 1.9
2016-Apr-28 21:33N 35°35' E 140°04'2 1.9
2016-Apr-28 20:33N 35°36' E 140°06'0 0.0
2016-Apr-28 19:33N 35°36' E 140°06'0 0.0
2016-Apr-28 18:33N 35°36' E 140°06'0 0.0
2016-Apr-28 17:33N 35°36' E 140°06'0 0.0
2016-Apr-28 16:33N 35°36' E 140°06'0 0.0
2016-Apr-28 15:33N 35°36' E 140°06'0 0.0
2016-Apr-28 14:33N 35°36' E 140°06'0 0.0
2016-Apr-28 07:34N 35°36' E 140°06'1 1.0
2016-Apr-28 06:34N 35°36' E 140°05'1 1.0
2016-Apr-28 05:33N 35°36' E 140°06'0 0.0
2016-Apr-28 04:34N 35°36' E 140°06'0 0.0
2016-Apr-28 03:33N 35°36' E 140°06'0 0.0
2016-Apr-28 02:33N 35°36' E 140°06'0 0.0
2016-Apr-28 01:33N 35°36' E 140°06'0 0.0
2016-Apr-28 00:33N 35°36' E 140°06'1 0.7
2016-Apr-27 23:34N 35°35' E 140°06'8 7.9
2016-Apr-27 22:34N 35°40' E 139°59'3 3.0
2016-Apr-27 21:33N 35°37' E 139°59'6 6.0
2016-Apr-27 20:34N 35°36' E 140°06'0 0.0
2016-Apr-27 19:33N 35°36' E 140°06'0 0.0
2016-Apr-27 18:33N 35°36' E 140°06'0 0.0
2016-Apr-27 17:33N 35°36' E 140°06'0 0.0
2016-Apr-27 16:34N 35°36' E 140°06'0 0.0
2016-Apr-27 15:34N 35°36' E 140°06'0 0.0
2016-Apr-27 14:34N 35°36' E 140°06'0 0.0
2016-Apr-27 13:34N 35°36' E 140°06'0 0.0
2016-Apr-27 12:34N 35°36' E 140°06'0 0.0
2016-Apr-27 11:34N 35°36' E 140°06'0 0.0
2016-Apr-27 10:33N 35°36' E 140°06'0 0.0
2016-Apr-27 09:33N 35°36' E 140°06'1 0.9
2016-Apr-27 08:34N 35°35' E 140°06'1 1.0
2016-Apr-27 07:34N 35°35' E 140°04'8 8.4
2016-Apr-27 06:33N 35°28' E 139°58'0 0.1
2016-Apr-27 05:26N 35°28' E 139°58'2 2.4
2016-Apr-27 04:33N 35°30' E 139°56'0 0.1
2016-Apr-27 03:33N 35°30' E 139°56'4 3.7
2016-Apr-27 02:33N 35°29' E 140°00'2 1.5
2016-Apr-27 01:33N 35°30' E 139°59'2 1.6
2016-Apr-27 00:33N 35°29' E 140°00'5 5.4
2016-Apr-26 23:33N 35°34' E 140°03'4 3.6
2016-Apr-26 22:34N 35°36' E 140°06'0 0.0
2016-Apr-26 21:33N 35°36' E 140°06'0 0.0
2016-Apr-26 20:34N 35°36' E 140°06'0 0.0
2016-Apr-26 19:33N 35°36' E 140°06'0 0.0
2016-Apr-26 18:34N 35°36' E 140°06'0 0.0
2016-Apr-26 17:33N 35°36' E 140°06'0 0.0
2016-Apr-26 16:34N 35°36' E 140°06'0 0.0
2016-Apr-26 15:33N 35°36' E 140°06'0 0.0
2016-Apr-26 14:33N 35°36' E 140°06'0 0.0
2016-Apr-26 07:33N 35°36' E 140°06'0 0.0
2016-Apr-26 06:33N 35°36' E 140°06'0 0.0
2016-Apr-26 05:33N 35°36' E 140°06'0 0.0
2016-Apr-26 04:33N 35°36' E 140°06'0 0.0
2016-Apr-26 03:33N 35°36' E 140°06'1 0.6
2016-Apr-26 02:33N 35°36' E 140°06'3 2.8
2016-Apr-26 01:33N 35°33' E 140°04'2 1.9
2016-Apr-26 00:33N 35°32' E 140°02'3 2.5
2016-Apr-25 23:33N 35°30' E 140°01'1 0.7
2016-Apr-25 22:33N 35°30' E 140°01'1 0.8
2016-Apr-25 21:33N 35°31' E 139°60'6 5.9
2016-Apr-25 20:33N 35°35' E 140°05'2 1.7
2016-Apr-25 19:33N 35°36' E 140°06'0 0.0
2016-Apr-25 10:34N 35°36' E 140°06'0 0.0
2016-Apr-25 09:33N 35°36' E 140°06'3 3.3
2016-Apr-25 08:33N 35°34' E 140°03'3 2.9
2016-Apr-25 07:33N 35°31' E 140°02'1 1.2
2016-Apr-25 06:33N 35°31' E 140°01'1 0.6
2016-Apr-25 05:33N 35°31' E 140°01'4 3.5
2016-Apr-25 04:33N 35°28' E 139°58'0 0.4
2016-Apr-25 03:33N 35°29' E 139°59'0 0.0
2016-Apr-25 02:33N 35°29' E 139°59'3 3.4
2016-Apr-25 01:33N 35°32' E 140°00'1 1.3
2016-Apr-25 00:33N 35°31' E 139°59'1 0.5
2016-Apr-24 23:33N 35°31' E 139°59'6 6.4
2016-Apr-24 22:34N 35°35' E 140°04'2 1.8
2016-Apr-24 21:33N 35°36' E 140°06'0 0.0
2016-Apr-24 08:33N 35°36' E 140°06'1 1.3
2016-Apr-24 07:34N 35°36' E 140°05'1 0.9
2016-Apr-24 06:34N 35°36' E 140°04'7 6.7
2016-Apr-24 05:34N 35°30' E 140°00'0 0.0
2016-Apr-24 04:34N 35°30' E 140°00'0 0.0
2016-Apr-24 03:33N 35°30' E 140°00'0 0.0
2016-Apr-24 02:33N 35°30' E 140°00'1 0.8
2016-Apr-24 01:34N 35°29' E 140°00'1 0.6
2016-Apr-24 00:34N 35°29' E 139°60'1 0.8
2016-Apr-23 23:34N 35°30' E 139°59'8 8.3
2016-Apr-23 22:34N 35°36' E 140°06'0 0.1
2016-Apr-23 21:33N 35°36' E 140°06'0 0.0
2016-Apr-23 20:33N 35°36' E 140°06'0 0.0
2016-Apr-23 19:33N 35°36' E 140°06'0 0.0
2016-Apr-23 18:33N 35°36' E 140°06'0 0.0
2016-Apr-23 17:33N 35°36' E 140°06'0 0.0
2016-Apr-23 16:33N 35°36' E 140°06'0 0.0
2016-Apr-23 15:33N 35°36' E 140°06'0 0.0
2016-Apr-23 14:33N 35°36' E 140°06'0 0.0
2016-Apr-23 13:33N 35°36' E 140°06'0 0.0
2016-Apr-23 12:33N 35°36' E 140°06'0 0.0
2016-Apr-23 11:33N 35°36' E 140°06'0 0.0
2016-Apr-23 10:33N 35°36' E 140°06'0 0.0
2016-Apr-23 07:34N 35°36' E 140°06'0 0.0
2016-Apr-23 06:33N 35°36' E 140°06'0 0.0
2016-Apr-23 05:33N 35°36' E 140°06'2 1.8
2016-Apr-23 04:33N 35°35' E 140°05'0 0.0
2016-Apr-23 03:33N 35°35' E 140°05'0 0.0
2016-Apr-23 02:33N 35°35' E 140°05'1 0.8
2016-Apr-23 01:34N 35°36' E 140°05'1 1.3
2016-Apr-23 00:33N 35°35' E 140°04'0 0.1
2016-Apr-22 23:33N 35°35' E 140°04'1 1.3
2016-Apr-22 22:33N 35°36' E 140°06'1 1.5
2016-Apr-22 21:33N 35°35' E 140°04'0 0.0
2016-Apr-22 20:33N 35°35' E 140°04'2 2.4
2016-Apr-22 19:33N 35°36' E 140°06'0 0.0
2016-Apr-22 18:33N 35°36' E 140°06'0 0.0
2016-Apr-22 17:33N 35°36' E 140°06'0 0.0
2016-Apr-22 16:33N 35°36' E 140°06'0 0.0
2016-Apr-22 15:33N 35°36' E 140°06'0 0.0
2016-Apr-22 14:33N 35°36' E 140°06'0 0.0
2016-Apr-22 13:33N 35°36' E 140°06'0 0.0
2016-Apr-22 12:33N 35°36' E 140°06'0 0.0
2016-Apr-22 11:33N 35°36' E 140°06'0 0.0
2016-Apr-22 10:33N 35°36' E 140°06'0 0.0
2016-Apr-22 07:33N 35°36' E 140°06'0 0.0
2016-Apr-22 06:33N 35°36' E 140°06'0 0.0
2016-Apr-22 05:33N 35°36' E 140°06'1 0.9
2016-Apr-22 04:33N 35°35' E 140°06'2 2.1
2016-Apr-22 03:33N 35°36' E 140°04'0 0.0
2016-Apr-22 02:33N 35°36' E 140°04'2 2.1
2016-Apr-22 01:33N 35°36' E 140°06'0 0.0
2016-Apr-22 00:33N 35°36' E 140°06'0 0.0
2016-Apr-21 23:33N 35°36' E 140°06'0 0.0
2016-Apr-21 22:33N 35°36' E 140°06'0 0.0
2016-Apr-21 21:33N 35°36' E 140°06'0 0.0
2016-Apr-21 20:33N 35°36' E 140°06'0 0.0
2016-Apr-21 19:33N 35°36' E 140°06'0 0.0
2016-Apr-21 18:33N 35°36' E 140°06'0 0.0
2016-Apr-21 17:33N 35°36' E 140°06'0 0.0
2016-Apr-21 16:33N 35°36' E 140°06'0 0.0
2016-Apr-21 15:33N 35°36' E 140°06'0 0.0
2016-Apr-21 14:33N 35°36' E 140°06'0 0.0
2016-Apr-21 13:34N 35°36' E 140°06'0 0.0
2016-Apr-21 12:33N 35°36' E 140°06'0 0.0
2016-Apr-21 11:34N 35°36' E 140°06'0 0.0
2016-Apr-21 10:34N 35°36' E 140°06'0 0.0
2016-Apr-21 09:33N 35°36' E 140°06'0 0.0
2016-Apr-21 08:34N 35°36' E 140°06'0 0.0
2016-Apr-21 07:32N 35°36' E 140°06'0 0.2
2016-Apr-21 06:33N 35°36' E 140°06'0 0.5
2016-Apr-21 05:33N 35°36' E 140°06'8 7.5
2016-Apr-21 04:33N 35°32' E 139°58'1 0.7
2016-Apr-21 03:33N 35°33' E 139°57'6 5.8
2016-Apr-21 02:33N 35°36' E 140°04'2 2.2
2016-Apr-21 01:33N 35°36' E 140°06'0 0.3
2016-Apr-21 00:33N 35°36' E 140°06'1 1.1
2016-Apr-20 23:33N 35°35' E 140°06'1 1.1
2016-Apr-20 22:33N 35°36' E 140°06'0 0.0
2016-Apr-20 21:33N 35°36' E 140°06'0 0.0
2016-Apr-20 20:33N 35°36' E 140°06'0 0.0
2016-Apr-20 19:33N 35°36' E 140°06'0 0.0
2016-Apr-20 18:33N 35°36' E 140°06'  
Track history (hours):
 
Tides and Currents Weather Stations Pressure Air Temp Water Temp Dewpoint Dewpoint Depression Visibility Wind Speed Wind Dir Waves Ship Positions

Daio

Last reported at 2016-Apr-30 18:33 UTC. Time now 2016-Apr-30 18:51 UTC.
Position N 35°36' E 140°07'.

Length 36 m; draft 3.4 m.

Type: Tug. MMSI: 431003092.

Date/timePositionNaut miles runAvg speedWind from/ knotsBaromVisibWave heightAir tempDewpointWater temp
2016-Apr-30 18:33N 35°36' E 140°07'0 0.0
2016-Apr-30 17:33N 35°36' E 140°07'0 0.0
2016-Apr-30 16:33N 35°36' E 140°07'0 0.0
2016-Apr-30 15:33N 35°36' E 140°07'0 0.0
2016-Apr-30 14:34N 35°36' E 140°07'0 0.0
2016-Apr-30 13:33N 35°36' E 140°07'0 0.0
2016-Apr-30 12:33N 35°36' E 140°07'0 0.0
2016-Apr-30 11:34N 35°36' E 140°07'0 0.0
2016-Apr-30 10:33N 35°36' E 140°07'0 0.0
2016-Apr-30 09:33N 35°36' E 140°07'1 1.4
2016-Apr-30 08:33N 35°36' E 140°05'1 1.3
2016-Apr-30 07:33N 35°36' E 140°07'0 0.0
2016-Apr-30 06:34N 35°36' E 140°07'1 0.9
2016-Apr-30 05:33N 35°36' E 140°06'1 1.2
2016-Apr-30 04:33N 35°35' E 140°04'0 0.0
2016-Apr-30 03:33N 35°35' E 140°04'0 0.0
2016-Apr-30 02:33N 35°35' E 140°04'3 2.5
2016-Apr-30 01:33N 35°33' E 140°03'2 1.8
2016-Apr-30 00:33N 35°31' E 140°02'1 1.1
2016-Apr-29 23:33N 35°32' E 140°01'6 5.7
2016-Apr-29 22:33N 35°36' E 140°06'1 0.7
2016-Apr-29 21:33N 35°36' E 140°06'0 0.0
2016-Apr-29 20:34N 35°36' E 140°06'0 0.0
2016-Apr-29 19:33N 35°36' E 140°06'0 0.0
2016-Apr-29 18:33N 35°36' E 140°06'0 0.0
2016-Apr-29 17:33N 35°36' E 140°06'0 0.0
2016-Apr-29 16:33N 35°36' E 140°06'0 0.0
2016-Apr-29 15:33N 35°36' E 140°06'0 0.0
2016-Apr-29 14:33N 35°36' E 140°06'0 0.0
2016-Apr-29 13:33N 35°36' E 140°06'0 0.0
2016-Apr-29 12:33N 35°36' E 140°06'0 0.0
2016-Apr-29 11:33N 35°36' E 140°06'0 0.0
2016-Apr-29 10:33N 35°36' E 140°06'0 0.0
2016-Apr-29 09:33N 35°36' E 140°06'0 0.0
2016-Apr-29 08:33N 35°36' E 140°06'0 0.0
2016-Apr-29 07:33N 35°36' E 140°06'0 0.0
2016-Apr-29 06:33N 35°36' E 140°06'0 0.0
2016-Apr-29 05:33N 35°36' E 140°06'0 0.0
2016-Apr-29 04:33N 35°36' E 140°06'0 0.0
2016-Apr-29 03:33N 35°36' E 140°06'0 0.0
2016-Apr-29 02:33N 35°36' E 140°06'0 0.0
2016-Apr-29 01:33N 35°36' E 140°06'0 0.0
2016-Apr-29 00:33N 35°36' E 140°06'0 0.0
2016-Apr-28 23:33N 35°36' E 140°06'0 0.0
2016-Apr-28 22:33N 35°36' E 140°06'2 1.9
2016-Apr-28 21:33N 35°35' E 140°04'2 1.9
2016-Apr-28 20:33N 35°36' E 140°06'0 0.0
2016-Apr-28 19:33N 35°36' E 140°06'0 0.0
2016-Apr-28 18:33N 35°36' E 140°06'0 0.0
2016-Apr-28 17:33N 35°36' E 140°06'0 0.0
2016-Apr-28 16:33N 35°36' E 140°06'0 0.0
2016-Apr-28 15:33N 35°36' E 140°06'0 0.0
2016-Apr-28 14:33N 35°36' E 140°06'0 0.0
2016-Apr-28 07:34N 35°36' E 140°06'1 1.0
2016-Apr-28 06:34N 35°36' E 140°05'1 1.0
2016-Apr-28 05:33N 35°36' E 140°06'0 0.0
2016-Apr-28 04:34N 35°36' E 140°06'0 0.0
2016-Apr-28 03:33N 35°36' E 140°06'0 0.0
2016-Apr-28 02:33N 35°36' E 140°06'0 0.0
2016-Apr-28 01:33N 35°36' E 140°06'0 0.0
2016-Apr-28 00:33N 35°36' E 140°06'1 0.7
2016-Apr-27 23:34N 35°35' E 140°06'8 7.9
2016-Apr-27 22:34N 35°40' E 139°59'3 3.0
2016-Apr-27 21:33N 35°37' E 139°59'6 6.0
2016-Apr-27 20:34N 35°36' E 140°06'0 0.0
2016-Apr-27 19:33N 35°36' E 140°06'0 0.0
2016-Apr-27 18:33N 35°36' E 140°06'0 0.0
2016-Apr-27 17:33N 35°36' E 140°06'0 0.0
2016-Apr-27 16:34N 35°36' E 140°06'0 0.0
2016-Apr-27 15:34N 35°36' E 140°06'0 0.0
2016-Apr-27 14:34N 35°36' E 140°06'0 0.0
2016-Apr-27 13:34N 35°36' E 140°06'0 0.0
2016-Apr-27 12:34N 35°36' E 140°06'0 0.0
2016-Apr-27 11:34N 35°36' E 140°06'0 0.0
2016-Apr-27 10:33N 35°36' E 140°06'0 0.0
2016-Apr-27 09:33N 35°36' E 140°06'1 0.9
2016-Apr-27 08:34N 35°35' E 140°06'1 1.0
2016-Apr-27 07:34N 35°35' E 140°04'8 8.4
2016-Apr-27 06:33N 35°28' E 139°58'0 0.1
2016-Apr-27 05:26N 35°28' E 139°58'2 2.4
2016-Apr-27 04:33N 35°30' E 139°56'0 0.1
2016-Apr-27 03:33N 35°30' E 139°56'4 3.7
2016-Apr-27 02:33N 35°29' E 140°00'2 1.5
2016-Apr-27 01:33N 35°30' E 139°59'2 1.6
2016-Apr-27 00:33N 35°29' E 140°00'5 5.4
2016-Apr-26 23:33N 35°34' E 140°03'4 3.6
2016-Apr-26 22:34N 35°36' E 140°06'0 0.0
2016-Apr-26 21:33N 35°36' E 140°06'0 0.0
2016-Apr-26 20:34N 35°36' E 140°06'0 0.0
2016-Apr-26 19:33N 35°36' E 140°06'0 0.0
2016-Apr-26 18:34N 35°36' E 140°06'0 0.0
2016-Apr-26 17:33N 35°36' E 140°06'0 0.0
2016-Apr-26 16:34N 35°36' E 140°06'0 0.0
2016-Apr-26 15:33N 35°36' E 140°06'0 0.0
2016-Apr-26 14:33N 35°36' E 140°06'0 0.0
2016-Apr-26 07:33N 35°36' E 140°06'0 0.0
2016-Apr-26 06:33N 35°36' E 140°06'0 0.0
2016-Apr-26 05:33N 35°36' E 140°06'0 0.0
2016-Apr-26 04:33N 35°36' E 140°06'0 0.0
2016-Apr-26 03:33N 35°36' E 140°06'1 0.6
2016-Apr-26 02:33N 35°36' E 140°06'3 2.8
2016-Apr-26 01:33N 35°33' E 140°04'2 1.9
2016-Apr-26 00:33N 35°32' E 140°02'3 2.5
2016-Apr-25 23:33N 35°30' E 140°01'1 0.7
2016-Apr-25 22:33N 35°30' E 140°01'1 0.8
2016-Apr-25 21:33N 35°31' E 139°60'6 5.9
2016-Apr-25 20:33N 35°35' E 140°05'2 1.7
2016-Apr-25 19:33N 35°36' E 140°06'0 0.0
2016-Apr-25 10:34N 35°36' E 140°06'0 0.0
2016-Apr-25 09:33N 35°36' E 140°06'3 3.3
2016-Apr-25 08:33N 35°34' E 140°03'3 2.9
2016-Apr-25 07:33N 35°31' E 140°02'1 1.2
2016-Apr-25 06:33N 35°31' E 140°01'1 0.6
2016-Apr-25 05:33N 35°31' E 140°01'4 3.5
2016-Apr-25 04:33N 35°28' E 139°58'0 0.4
2016-Apr-25 03:33N 35°29' E 139°59'0 0.0
2016-Apr-25 02:33N 35°29' E 139°59'3 3.4
2016-Apr-25 01:33N 35°32' E 140°00'1 1.3
2016-Apr-25 00:33N 35°31' E 139°59'1 0.5
2016-Apr-24 23:33N 35°31' E 139°59'6 6.4
2016-Apr-24 22:34N 35°35' E 140°04'2 1.8
2016-Apr-24 21:33N 35°36' E 140°06'0 0.0
2016-Apr-24 08:33N 35°36' E 140°06'1 1.3
2016-Apr-24 07:34N 35°36' E 140°05'1 0.9
2016-Apr-24 06:34N 35°36' E 140°04'7 6.7
2016-Apr-24 05:34N 35°30' E 140°00'0 0.0
2016-Apr-24 04:34N 35°30' E 140°00'0 0.0
2016-Apr-24 03:33N 35°30' E 140°00'0 0.0
2016-Apr-24 02:33N 35°30' E 140°00'1 0.8
2016-Apr-24 01:34N 35°29' E 140°00'1 0.6
2016-Apr-24 00:34N 35°29' E 139°60'1 0.8
2016-Apr-23 23:34N 35°30' E 139°59'8 8.3
2016-Apr-23 22:34N 35°36' E 140°06'0 0.1
2016-Apr-23 21:33N 35°36' E 140°06'0 0.0
2016-Apr-23 20:33N 35°36' E 140°06'0 0.0
2016-Apr-23 19:33N 35°36' E 140°06'0 0.0
2016-Apr-23 18:33N 35°36' E 140°06'0 0.0
2016-Apr-23 17:33N 35°36' E 140°06'0 0.0
2016-Apr-23 16:33N 35°36' E 140°06'0 0.0
2016-Apr-23 15:33N 35°36' E 140°06'0 0.0
2016-Apr-23 14:33N 35°36' E 140°06'0 0.0
2016-Apr-23 13:33N 35°36' E 140°06'0 0.0
2016-Apr-23 12:33N 35°36' E 140°06'0 0.0
2016-Apr-23 11:33N 35°36' E 140°06'0 0.0
2016-Apr-23 10:33N 35°36' E 140°06'0 0.0
2016-Apr-23 07:34N 35°36' E 140°06'0 0.0
2016-Apr-23 06:33N 35°36' E 140°06'0 0.0
2016-Apr-23 05:33N 35°36' E 140°06'2 1.8
2016-Apr-23 04:33N 35°35' E 140°05'0 0.0
2016-Apr-23 03:33N 35°35' E 140°05'0 0.0
2016-Apr-23 02:33N 35°35' E 140°05'1 0.8
2016-Apr-23 01:34N 35°36' E 140°05'1 1.3
2016-Apr-23 00:33N 35°35' E 140°04'0 0.1
2016-Apr-22 23:33N 35°35' E 140°04'1 1.3
2016-Apr-22 22:33N 35°36' E 140°06'1 1.5
2016-Apr-22 21:33N 35°35' E 140°04'0 0.0
2016-Apr-22 20:33N 35°35' E 140°04'2 2.4
2016-Apr-22 19:33N 35°36' E 140°06'0 0.0
2016-Apr-22 18:33N 35°36' E 140°06'0 0.0
2016-Apr-22 17:33N 35°36' E 140°06'0 0.0
2016-Apr-22 16:33N 35°36' E 140°06'0 0.0
2016-Apr-22 15:33N 35°36' E 140°06'0 0.0
2016-Apr-22 14:33N 35°36' E 140°06'0 0.0
2016-Apr-22 13:33N 35°36' E 140°06'0 0.0
2016-Apr-22 12:33N 35°36' E 140°06'0 0.0
2016-Apr-22 11:33N 35°36' E 140°06'0 0.0
2016-Apr-22 10:33N 35°36' E 140°06'0 0.0
2016-Apr-22 07:33N 35°36' E 140°06'0 0.0
2016-Apr-22 06:33N 35°36' E 140°06'0 0.0
2016-Apr-22 05:33N 35°36' E 140°06'1 0.9
2016-Apr-22 04:33N 35°35' E 140°06'2 2.1
2016-Apr-22 03:33N 35°36' E 140°04'0 0.0
2016-Apr-22 02:33N 35°36' E 140°04'2 2.1
2016-Apr-22 01:33N 35°36' E 140°06'0 0.0
2016-Apr-22 00:33N 35°36' E 140°06'0 0.0
2016-Apr-21 23:33N 35°36' E 140°06'0 0.0
2016-Apr-21 22:33N 35°36' E 140°06'0 0.0
2016-Apr-21 21:33N 35°36' E 140°06'0 0.0
2016-Apr-21 20:33N 35°36' E 140°06'0 0.0
2016-Apr-21 19:33N 35°36' E 140°06'0 0.0
2016-Apr-21 18:33N 35°36' E 140°06'0 0.0
2016-Apr-21 17:33N 35°36' E 140°06'0 0.0
2016-Apr-21 16:33N 35°36' E 140°06'0 0.0
2016-Apr-21 15:33N 35°36' E 140°06'0 0.0
2016-Apr-21 14:33N 35°36' E 140°06'0 0.0
2016-Apr-21 13:34N 35°36' E 140°06'0 0.0
2016-Apr-21 12:33N 35°36' E 140°06'0 0.0
2016-Apr-21 11:34N 35°36' E 140°06'0 0.0
2016-Apr-21 10:34N 35°36' E 140°06'0 0.0
2016-Apr-21 09:33N 35°36' E 140°06'0 0.0
2016-Apr-21 08:34N 35°36' E 140°06'0 0.0
2016-Apr-21 07:32N 35°36' E 140°06'0 0.2
2016-Apr-21 06:33N 35°36' E 140°06'0 0.5
2016-Apr-21 05:33N 35°36' E 140°06'8 7.5
2016-Apr-21 04:33N 35°32' E 139°58'1 0.7
2016-Apr-21 03:33N 35°33' E 139°57'6 5.8
2016-Apr-21 02:33N 35°36' E 140°04'2 2.2
2016-Apr-21 01:33N 35°36' E 140°06'0 0.3
2016-Apr-21 00:33N 35°36' E 140°06'1 1.1
2016-Apr-20 23:33N 35°35' E 140°06'1 1.1
2016-Apr-20 22:33N 35°36' E 140°06'0 0.0
2016-Apr-20 21:33N 35°36' E 140°06'0 0.0
2016-Apr-20 20:33N 35°36' E 140°06'0 0.0
2016-Apr-20 19:33N 35°36' E 140°06'0 0.0
2016-Apr-20 18:33N 35°36' E 140°06'  

Dump ship's entire track history